Time;durP1;ratioP1;P1;durP2;ratioP2;P2;SDS_P1;SDS_P2;PMS_P1;PMS_P2;Temp;Humidity;BMP_temperature;BMP_pressure;BME280_temperature;BME280_humidity;BME280_pressure;Samples;Min_cycle;Max_cycle;Signal;HPM_P1;HPM_P2
2022/03/08 00:02:07;;;;;;;;;47.50;42.00;;;;;3.21;46.57;101627.06;5032538;28;49804;-64
2022/03/08 00:04:32;;;;;;;;;45.75;40.75;;;;;2.97;46.99;101600.44;5032051;28;50494;-64
2022/03/08 00:06:58;;;;;;;;;29.75;27.75;;;;;3.09;47.45;101606.44;5032178;28;49893;-63
2022/03/08 00:09:24;;;;;;;;;44.25;36.75;;;;;3.13;46.81;101613.59;5032222;28;49792;-63
2022/03/08 00:11:49;;;;;;;;;52.75;44.25;;;;;3.06;47.51;101606.22;5032006;28;49607;-63
2022/03/08 00:14:15;;;;;;;;;47.00;35.00;;;;;3.07;46.98;101619.28;5031567;28;49948;-63
2022/03/08 00:16:40;;;;;;;;;45.25;41.00;;;;;3.08;47.77;101622.75;5031986;28;50129;-63
2022/03/08 00:19:06;;;;;;;;;42.25;36.50;;;;;3.08;47.64;101620.16;5032000;28;49875;-64
2022/03/08 00:21:31;;;;;;;;;41.75;36.25;;;;;3.00;47.77;101618.81;5032434;28;49934;-64
2022/03/08 00:23:57;;;;;;;;;46.75;41.00;;;;;3.02;47.83;101619.78;5031611;28;49792;-64
2022/03/08 00:26:23;;;;;;;;;46.50;39.75;;;;;2.76;47.97;101569.72;5031683;28;49737;-64
2022/03/08 00:28:48;;;;;;;;;55.75;44.75;;;;;3.00;48.26;101622.28;5031937;28;49793;-64
2022/03/08 00:31:14;;;;;;;;;39.25;37.50;;;;;2.65;47.40;101559.47;5031731;28;50030;-63
2022/03/08 00:33:39;;;;;;;;;51.50;41.00;;;;;2.94;47.52;101611.50;5031567;28;50341;-64
2022/03/08 00:36:05;;;;;;;;;47.25;41.50;;;;;2.86;47.53;101607.50;5031587;28;49596;-63
2022/03/08 00:38:31;;;;;;;;;46.00;41.50;;;;;2.80;48.34;101600.25;5031549;28;49811;-64
2022/03/08 00:40:56;;;;;;;;;43.75;40.00;;;;;2.87;48.14;101615.38;5031904;28;49904;-63
2022/03/08 00:43:22;;;;;;;;;43.50;42.25;;;;;2.69;47.91;101588.25;5031457;28;50504;-63
2022/03/08 00:45:47;;;;;;;;;54.00;42.50;;;;;2.80;47.65;101622.69;5031636;28;49780;-64
2022/03/08 00:48:12;;;;;;;;;43.00;38.75;;;;;2.31;48.70;101541.69;5031660;28;49766;-64
2022/03/08 00:50:38;;;;;;;;;43.75;41.75;;;;;2.81;47.95;101617.59;5031706;28;49806;-63
2022/03/08 00:53:05;;;;;;;;;43.75;39.25;;;;;2.62;48.73;101591.28;5024031;28;49980;-64
2022/03/08 00:55:32;;;;;;;;;51.25;43.25;;;;;2.63;48.70;101584.38;5031319;28;49705;-64
2022/03/08 00:57:58;;;;;;;;;55.00;47.50;;;;;2.73;48.28;101608.41;5031449;28;49721;-64
2022/03/08 01:00:25;;;;;;;;;48.75;41.75;;;;;2.77;48.96;101615.59;5031810;28;49778;-63
2022/03/08 01:02:51;;;;;;;;;55.75;42.00;;;;;2.73;48.85;101605.81;5031097;28;49674;-64
2022/03/08 01:05:16;;;;;;;;;36.25;32.00;;;;;2.59;48.40;101589.34;5031125;28;49778;-64
2022/03/08 01:07:43;;;;;;;;;51.25;38.00;;;;;2.72;48.44;101606.63;5031020;28;50423;-66
2022/03/08 01:10:11;;;;;;;;;41.50;36.75;;;;;2.70;49.09;101615.09;5031417;28;49879;-64
2022/03/08 01:12:37;;;;;;;;;44.50;41.75;;;;;2.66;48.39;101611.41;5030695;28;50171;-63
2022/03/08 01:15:04;;;;;;;;;50.50;42.50;;;;;2.64;49.52;101606.91;5031241;28;49871;-63
2022/03/08 01:17:31;;;;;;;;;40.75;35.75;;;;;2.62;48.95;101603.34;5031279;28;49830;-64
2022/03/08 01:19:57;;;;;;;;;52.00;43.50;;;;;2.65;49.24;101604.41;5031366;28;50004;-64
2022/03/08 01:22:23;;;;;;;;;46.75;42.00;;;;;2.63;49.00;101600.84;5030653;28;50403;-64
2022/03/08 01:24:48;;;;;;;;;50.00;39.25;;;;;2.57;49.22;101609.09;5031094;28;50039;-64
2022/03/08 01:27:13;;;;;;;;;47.00;42.25;;;;;2.56;49.50;101607.31;5030710;28;49834;-64
2022/03/08 01:29:38;;;;;;;;;47.25;39.25;;;;;2.50;49.03;101595.63;5031041;28;49784;-64
2022/03/08 01:32:04;;;;;;;;;51.25;43.00;;;;;2.54;49.55;101601.13;5030855;28;50019;-63
2022/03/08 01:34:30;;;;;;;;;44.50;41.50;;;;;2.41;48.97;101579.47;5030942;28;49647;-64
2022/03/08 01:36:55;;;;;;;;;56.75;45.00;;;;;2.50;49.04;101595.63;5031243;28;50394;-63
2022/03/08 01:39:21;;;;;;;;;47.25;41.50;;;;;2.35;49.38;101577.38;5030627;28;49972;-63
2022/03/08 01:41:46;;;;;;;;;49.25;39.25;;;;;2.42;49.41;101595.13;5030427;28;50677;-64
2022/03/08 01:44:12;;;;;;;;;45.50;41.00;;;;;2.46;49.63;101596.22;5030462;28;49762;-64
2022/03/08 01:46:37;;;;;;;;;47.75;43.25;;;;;2.38;49.33;101581.84;5030487;28;49656;-63
2022/03/08 01:49:05;;;;;;;;;39.50;37.00;;;;;2.21;49.60;101557.41;5030701;28;50026;-64
2022/03/08 01:51:32;;;;;;;;;52.75;45.50;;;;;2.33;49.85;101572.91;5030809;28;50293;-63
2022/03/08 01:53:57;;;;;;;;;40.25;39.50;;;;;2.23;49.31;101571.38;5030420;28;49783;-63
2022/03/08 01:56:23;;;;;;;;;47.50;37.25;;;;;1.85;49.42;101496.31;5030745;28;49675;-63
2022/03/08 01:58:48;;;;;;;;;54.00;45.25;;;;;2.37;50.26;101586.16;5030748;28;49742;-63
2022/03/08 02:01:14;;;;;;;;;50.00;39.75;;;;;2.36;49.58;101586.06;5030133;28;49720;-63
2022/03/08 02:03:40;;;;;;;;;37.50;35.25;;;;;2.37;49.81;101580.06;5029803;28;49756;-63
2022/03/08 02:06:05;;;;;;;;;46.50;40.00;;;;;2.35;49.31;101582.56;5029931;28;49894;-64
2022/03/08 02:08:31;;;;;;;;;31.00;30.25;;;;;2.33;49.61;101581.56;5030315;28;49692;-63
2022/03/08 02:10:56;;;;;;;;;59.00;45.25;;;;;1.75;50.01;101475.78;5030127;28;49919;-63
2022/03/08 02:13:24;;;;;;;;;42.25;39.50;;;;;2.29;50.00;101566.59;5030434;28;50278;-63
2022/03/08 02:15:51;;;;;;;;;46.00;41.25;;;;;2.29;49.93;101576.97;5030234;28;49611;-64
2022/03/08 02:18:18;;;;;;;;;42.00;39.00;;;;;2.17;50.40;101566.69;5030341;28;49658;-64
2022/03/08 02:20:44;;;;;;;;;42.50;41.50;;;;;2.23;49.88;101581.75;5029739;28;49710;-64
2022/03/08 02:23:10;;;;;;;;;50.00;45.00;;;;;2.23;50.49;101569.69;5029824;28;50279;-64
2022/03/08 02:25:35;;;;;;;;;60.50;43.50;;;;;2.06;50.16;101538.28;5029743;28;49784;-63
2022/03/08 02:28:03;;;;;;;;;42.25;39.50;;;;;2.23;50.27;101567.09;5030300;28;49661;-64
2022/03/08 02:30:29;;;;;;;;;47.75;41.25;;;;;2.24;49.97;101565.41;5030053;28;49862;-63
2022/03/08 02:32:55;;;;;;;;;52.25;43.00;;;;;1.91;49.93;101528.66;5030156;28;49842;-64
2022/03/08 02:35:24;;;;;;;;;43.25;40.00;;;;;2.11;49.80;101566.25;5029754;28;49951;-63
2022/03/08 02:37:52;;;;;;;;;45.75;41.50;;;;;2.14;50.82;101578.53;5029823;28;49989;-63
2022/03/08 02:40:21;;;;;;;;;48.75;41.00;;;;;1.97;50.81;101546.31;5029614;28;50348;-63
2022/03/08 02:42:47;;;;;;;;;46.00;40.25;;;;;2.06;51.06;101565.06;5029868;28;49631;-63
2022/03/08 02:45:14;;;;;;;;;47.50;41.25;;;;;2.04;50.61;101573.53;5030012;28;49969;-63
2022/03/08 02:47:39;;;;;;;;;46.00;41.00;;;;;1.86;50.99;101522.28;5030266;28;50019;-63
2022/03/08 02:50:08;;;;;;;;;47.50;41.50;;;;;2.01;50.67;101540.53;5029933;28;49993;-63
2022/03/08 02:52:34;;;;;;;;;49.50;40.00;;;;;2.05;51.04;101554.59;5029681;28;50032;-63
2022/03/08 02:55:00;;;;;;;;;52.50;45.00;;;;;2.05;51.12;101544.25;5029585;28;49950;-64
2022/03/08 02:57:26;;;;;;;;;44.25;38.75;;;;;2.06;50.72;101543.44;5030073;28;49915;-64
2022/03/08 02:59:51;;;;;;;;;42.00;36.50;;;;;1.77;50.32;101490.59;5029824;28;50377;-64
2022/03/08 03:02:17;;;;;;;;;46.00;39.75;;;;;2.06;50.65;101548.63;5029816;28;49688;-64
2022/03/08 03:04:42;;;;;;;;;49.25;41.50;;;;;2.06;50.65;101549.53;5029760;28;49935;-64
2022/03/08 03:07:08;;;;;;;;;45.25;42.00;;;;;1.95;50.98;101519.44;5029530;28;49727;-63
2022/03/08 03:09:33;;;;;;;;;42.00;38.50;;;;;1.99;50.62;101526.59;5029561;28;49784;-63
2022/03/08 03:11:58;;;;;;;;;52.50;43.50;;;;;1.65;51.00;101461.31;5028348;28;49725;-63
2022/03/08 03:14:23;;;;;;;;;45.75;41.75;;;;;2.03;51.24;101538.03;5029455;28;49653;-63
2022/03/08 03:16:49;;;;;;;;;37.50;29.75;;;;;2.03;51.27;101543.22;5032240;28;49833;-64
2022/03/08 03:19:14;;;;;;;;;45.00;41.50;;;;;1.73;51.02;101491.16;5032984;28;49992;-63
2022/03/08 03:21:39;;;;;;;;;58.75;46.75;;;;;1.65;51.14;101472.56;5032679;28;49790;-64
2022/03/08 03:24:05;;;;;;;;;49.75;40.25;;;;;1.97;51.70;101523.91;5032785;28;49755;-63
2022/03/08 03:26:31;;;;;;;;;45.75;42.25;;;;;1.79;50.89;101494.19;5032840;28;50028;-65
2022/03/08 03:28:56;;;;;;;;;53.50;42.50;;;;;1.91;51.61;101520.91;5032647;28;49857;-65
2022/03/08 03:31:21;;;;;;;;;51.00;44.50;;;;;1.92;51.17;101516.59;5032730;28;49897;-65
2022/03/08 03:33:47;;;;;;;;;52.75;43.00;;;;;1.86;51.99;101518.81;5032566;28;49887;-65
2022/03/08 03:36:12;;;;;;;;;54.75;46.00;;;;;1.41;51.97;101447.59;5032939;28;49857;-65
2022/03/08 03:38:38;;;;;;;;;52.75;43.25;;;;;1.62;52.02;101482.69;5032339;28;50883;-63
2022/03/08 03:41:03;;;;;;;;;55.00;45.50;;;;;1.69;52.27;101500.44;5032554;28;49768;-63
2022/03/08 03:43:29;;;;;;;;;45.50;42.75;;;;;1.69;52.17;101510.78;5032891;28;49956;-63
2022/03/08 03:45:54;;;;;;;;;58.00;45.00;;;;;1.59;52.46;101500.59;5032810;28;49984;-63
2022/03/08 03:48:19;;;;;;;;;51.50;43.75;;;;;1.64;52.41;101511.25;5032303;28;49830;-64
2022/03/08 03:50:45;;;;;;;;;62.50;45.25;;;;;1.62;53.03;101510.25;5031634;28;49780;-66
2022/03/08 03:53:10;;;;;;;;;60.25;48.00;;;;;1.57;52.85;101504.78;5032129;28;50082;-65
2022/03/08 03:55:35;;;;;;;;;48.50;43.00;;;;;1.54;52.75;101509.72;5032794;28;49840;-66
2022/03/08 03:58:01;;;;;;;;;50.75;44.25;;;;;1.52;52.93;101513.91;5032011;28;53449;-66
2022/03/08 04:00:27;;;;;;;;;45.75;40.75;;;;;1.49;52.79;101511.13;5032580;28;49856;-64
2022/03/08 04:02:53;;;;;;;;;39.33;29.67;;;;;1.48;53.03;101509.31;5032363;28;49862;-65
2022/03/08 04:05:18;;;;;;;;;51.00;44.33;;;;;1.30;52.81;101482.19;5032322;28;50030;-65
2022/03/08 04:07:44;;;;;;;;;40.25;36.50;;;;;1.47;52.86;101509.22;5031742;28;49731;-65
2022/03/08 04:10:12;;;;;;;;;55.25;43.50;;;;;1.39;52.67;101482.81;5032228;28;49866;-63
2022/03/08 04:12:37;;;;;;;;;49.25;42.75;;;;;1.51;52.65;101511.22;5032192;28;50030;-64
2022/03/08 04:15:03;;;;;;;;;46.50;39.50;;;;;1.52;53.08;101508.72;5032179;28;49572;-63
2022/03/08 04:17:29;;;;;;;;;53.33;44.00;;;;;1.36;53.06;101493.84;5032055;28;49740;-65
2022/03/08 04:19:54;;;;;;;;;62.50;46.00;;;;;1.45;53.24;101514.28;5031911;28;49851;-65
2022/03/08 04:22:20;;;;;;;;;51.00;45.50;;;;;1.41;52.86;101508.00;5030669;28;49725;-65
2022/03/08 04:24:46;;;;;;;;;59.00;44.00;;;;;1.42;52.84;101514.97;5030702;28;50055;-66
2022/03/08 04:27:11;;;;;;;;;71.67;47.00;;;;;1.26;52.90;101481.09;5030947;28;49938;-65
2022/03/08 04:29:37;;;;;;;;;55.67;47.00;;;;;0.97;53.00;101423.88;5031742;28;49693;-63
2022/03/08 04:32:02;;;;;;;;;58.00;46.67;;;;;1.42;53.36;101498.53;5031878;28;49640;-63
2022/03/08 04:34:27;;;;;;;;;62.67;50.33;;;;;1.39;53.56;101508.69;5032138;28;49730;-66
2022/03/08 04:36:53;;;;;;;;;59.00;51.00;;;;;1.11;53.28;101462.78;5031461;28;50419;-64
2022/03/08 04:39:18;;;;;;;;;56.00;47.33;;;;;1.33;53.17;101503.06;5031956;28;49846;-65
2022/03/08 04:41:44;;;;;;;;;62.00;51.33;;;;;1.34;53.13;101502.28;5031728;28;50265;-64
2022/03/08 04:44:09;;;;;;;;;67.33;52.33;;;;;1.27;53.41;101489.75;5031747;28;49941;-64
2022/03/08 04:46:35;;;;;;;;;53.00;47.33;;;;;1.30;53.46;101493.41;5031364;28;50465;-65
2022/03/08 04:49:00;;;;;;;;;66.00;47.00;;;;;1.30;53.58;101496.00;5031347;28;49760;-64
2022/03/08 04:51:25;;;;;;;;;62.67;53.00;;;;;1.09;53.52;101460.91;5031655;28;49749;-64
2022/03/08 04:53:51;;;;;;;;;52.67;45.33;;;;;1.30;53.91;101496.00;5031596;28;50278;-65
2022/03/08 04:56:18;;;;;;;;;47.00;42.33;;;;;1.27;53.94;101506.16;5030041;28;49889;-65
2022/03/08 04:58:44;;;;;;;;;50.33;46.00;;;;;0.77;53.83;101425.03;5031390;28;49597;-65
2022/03/08 05:01:09;;;;;;;;;61.00;48.67;;;;;1.17;54.08;101497.66;5013351;28;49720;-64
2022/03/08 05:03:34;;;;;;;;;52.75;45.75;;;;;1.17;54.14;101503.72;5031167;28;49767;-64
2022/03/08 05:06:00;;;;;;;;;52.50;39.75;;;;;1.11;54.26;101493.84;5030881;28;49794;-65
2022/03/08 05:08:25;;;;;;;;;59.33;47.67;;;;;1.13;53.91;101497.41;5031137;28;49792;-64
2022/03/08 05:10:50;;;;;;;;;63.00;48.33;;;;;1.11;54.55;101499.00;5031351;28;49849;-64
2022/03/08 05:13:16;;;;;;;;;53.00;44.00;;;;;1.11;54.61;101496.41;5031625;28;49744;-64
2022/03/08 05:15:41;;;;;;;;;56.00;42.00;;;;;1.14;54.31;101490.56;5031175;28;50775;-65
2022/03/08 05:18:06;;;;;;;;;66.50;48.25;;;;;1.19;53.93;101490.88;5030935;28;49580;-65
2022/03/08 05:20:32;;;;;;;;;53.50;43.25;;;;;0.96;53.96;101451.38;5013142;28;50728;-65
2022/03/08 05:23:00;;;;;;;;;54.50;45.75;;;;;1.19;54.09;101484.03;5030907;28;49608;-64
2022/03/08 05:25:27;;;;;;;;;63.25;48.25;;;;;1.20;54.22;101490.09;5030826;28;50568;-65
2022/03/08 05:27:52;;;;;;;;;49.25;41.75;;;;;1.07;54.10;101473.72;5030828;28;49800;-65
2022/03/08 05:30:17;;;;;;;;;54.25;44.50;;;;;1.15;53.88;101485.47;5031078;28;49576;-65
2022/03/08 05:32:43;;;;;;;;;50.50;42.50;;;;;1.15;54.37;101477.72;5031070;28;49854;-64
2022/03/08 05:35:08;;;;;;;;;54.67;48.67;;;;;1.17;53.92;101480.44;5030773;28;49647;-64
2022/03/08 05:37:36;;;;;;;;;62.75;48.00;;;;;1.16;54.13;101483.81;5030581;28;49751;-64
2022/03/08 05:40:03;;;;;;;;;50.75;45.25;;;;;1.13;54.05;101488.75;5030661;28;49778;-64
2022/03/08 05:42:28;;;;;;;;;51.67;45.33;;;;;1.11;54.34;101482.59;5030801;28;49681;-64
2022/03/08 05:44:54;;;;;;;;;60.00;47.33;;;;;1.09;54.49;101471.25;5030454;28;53576;-64
2022/03/08 05:47:19;;;;;;;;;60.33;47.33;;;;;0.98;54.40;101472.19;5030616;28;49782;-64
2022/03/08 05:49:44;;;;;;;;;57.67;46.33;;;;;1.12;54.44;101484.38;5030901;28;49936;-64
2022/03/08 05:52:10;;;;;;;;;67.00;48.67;;;;;1.10;54.25;101489.44;5030562;28;49924;-64
2022/03/08 05:54:35;;;;;;;;;44.25;39.75;;;;;1.13;54.42;101479.31;5030347;28;49790;-64
2022/03/08 05:57:00;;;;;;;;;51.50;45.75;;;;;1.14;54.19;101477.63;5030402;28;49634;-64
2022/03/08 05:59:26;;;;;;;;;51.50;43.00;;;;;0.88;54.69;101451.66;5030411;28;49789;-64
2022/03/08 06:01:51;;;;;;;;;56.75;44.00;;;;;0.99;54.77;101473.97;5030728;28;50118;-64
2022/03/08 06:04:17;;;;;;;;;54.25;47.50;;;;;1.03;54.97;101491.50;5030350;28;49950;-64
2022/03/08 06:06:42;;;;;;;;;57.75;46.25;;;;;1.03;54.63;101492.38;5030451;28;49783;-64
2022/03/08 06:09:07;;;;;;;;;46.00;40.00;;;;;1.10;54.93;101492.03;5030393;28;50072;-64
2022/03/08 06:11:33;;;;;;;;;55.33;48.33;;;;;1.11;54.83;101501.59;5030655;28;50093;-64
2022/03/08 06:13:59;;;;;;;;;48.75;39.00;;;;;1.12;54.99;101507.66;5030218;28;50246;-65
2022/03/08 06:16:24;;;;;;;;;71.67;48.67;;;;;1.01;54.52;101475.88;5030144;28;50024;-64
2022/03/08 06:18:50;;;;;;;;;49.25;42.50;;;;;1.15;54.78;101498.41;5030402;28;49833;-66
2022/03/08 06:21:15;;;;;;;;;57.00;45.00;;;;;1.10;55.28;101486.88;5012115;28;49911;-66
2022/03/08 06:23:40;;;;;;;;;52.25;47.00;;;;;1.15;55.06;101506.16;5029837;28;50342;-64
2022/03/08 06:26:06;;;;;;;;;60.33;47.00;;;;;1.05;54.88;101485.63;5030082;28;49868;-65
2022/03/08 06:28:31;;;;;;;;;50.75;44.50;;;;;1.19;55.11;101517.66;5030483;28;49851;-64
2022/03/08 06:30:57;;;;;;;;;62.33;46.00;;;;;0.85;54.93;101465.22;5030239;28;49983;-63
2022/03/08 06:33:22;;;;;;;;;53.33;46.33;;;;;1.23;54.75;101509.31;5029891;28;50622;-63
2022/03/08 06:35:47;;;;;;;;;57.00;47.75;;;;;1.23;54.95;101508.41;5029753;28;49958;-64
2022/03/08 06:38:13;;;;;;;;;58.33;49.00;;;;;1.03;54.88;101474.28;5029701;28;49884;-62
2022/03/08 06:40:38;;;;;;;;;63.50;47.25;;;;;1.29;54.70;101501.09;5029992;28;49960;-63
2022/03/08 06:43:03;;;;;;;;;50.33;44.00;;;;;1.28;54.93;101500.19;5029826;28;51256;-62
2022/03/08 06:45:29;;;;;;;;;64.25;53.50;;;;;1.27;54.70;101508.75;5029744;28;49675;-63
2022/03/08 06:47:54;;;;;;;;;55.75;47.00;;;;;1.17;54.63;101484.72;5029952;28;49784;-62
2022/03/08 06:50:19;;;;;;;;;52.50;44.00;;;;;1.25;54.45;101483.53;5030527;28;49673;-62
2022/03/08 06:52:45;;;;;;;;;65.25;50.75;;;;;1.36;54.52;101506.78;5032910;28;50352;-63
2022/03/08 06:55:10;;;;;;;;;51.50;48.25;;;;;1.37;54.06;101502.53;5033532;28;50007;-63
2022/03/08 06:57:37;;;;;;;;;47.50;41.50;;;;;1.41;54.44;101507.09;5033343;28;50320;-63
2022/03/08 07:00:05;;;;;;;;;59.67;49.00;;;;;1.18;54.49;101455.47;5033561;28;49936;-62
2022/03/08 07:02:30;;;;;;;;;61.00;45.67;;;;;1.50;54.28;101507.72;5033225;28;50528;-62
2022/03/08 07:04:55;;;;;;;;;58.67;49.00;;;;;1.54;54.50;101506.25;5033391;28;49808;-62
2022/03/08 07:07:21;;;;;;;;;62.67;49.00;;;;;1.54;54.36;101495.88;5035052;28;49768;-60
2022/03/08 07:09:47;;;;;;;;;56.00;49.33;;;;;1.36;54.27;101457.66;5033211;28;49694;-62
2022/03/08 07:12:12;;;;;;;;;65.75;44.50;;;;;1.68;54.23;101501.22;5033134;28;51344;-65
2022/03/08 07:14:38;;;;;;;;;67.67;49.00;;;;;1.70;54.37;101504.81;5034385;28;49796;-66
2022/03/08 07:17:03;;;;;;;;;65.25;53.25;;;;;1.59;54.11;101476.41;5032902;28;49702;-66
2022/03/08 07:19:31;;;;;;;;;62.75;49.00;;;;;1.68;53.49;101482.22;5033656;28;49734;-72
2022/03/08 07:21:57;;;;;;;;;65.00;48.67;;;;;1.73;53.67;101480.81;5026336;28;49738;-71
2022/03/08 07:24:22;;;;;;;;;46.00;42.67;;;;;1.75;53.20;101470.59;5014822;28;49756;-73
2022/03/08 07:26:47;;;;;;;;;57.00;49.25;;;;;1.87;53.43;101492.13;5032807;28;50059;-73
2022/03/08 07:29:16;;;;;;;;;60.50;46.50;;;;;1.61;53.59;101439.47;5032594;28;49957;-71
2022/03/08 07:31:41;;;;;;;;;67.33;53.67;;;;;0.68;52.77;101293.50;5014121;28;52434;-71
2022/03/08 07:34:07;;;;;;;;;73.00;52.33;;;;;0.44;53.43;101277.22;5032728;28;49670;-71
2022/03/08 07:36:33;;;;;;;;;63.00;50.50;;;;;2.02;53.82;101500.88;5014387;28;49773;-71
2022/03/08 07:38:59;;;;;;;;;64.33;48.67;;;;;2.02;52.91;101508.66;5032484;28;49903;-71
2022/03/08 07:41:24;;;;;;;;;67.33;47.00;;;;;1.87;52.90;101471.41;5032333;28;49864;-71
2022/03/08 07:43:49;;;;;;;;;60.00;46.00;;;;;2.17;52.60;101524.34;5032615;28;50157;-71
2022/03/08 07:46:15;;;;;;;;;42.25;41.00;;;;;2.22;52.61;101522.94;5032469;28;50116;-70
2022/03/08 07:48:40;;;;;;;;;59.00;47.50;;;;;2.17;52.38;101509.69;5032480;28;49812;-71
2022/03/08 07:51:06;;;;;;;;;58.67;47.67;;;;;2.31;52.58;101528.72;5032433;28;50542;-70
2022/03/08 07:53:31;;;;;;;;;58.33;47.00;;;;;2.39;52.72;101527.53;5032361;28;49662;-71
2022/03/08 07:55:57;;;;;;;;;59.33;50.33;;;;;2.48;51.53;101517.78;5032438;28;49847;-70
2022/03/08 07:58:22;;;;;;;;;61.67;46.67;;;;;2.45;51.22;101508.91;5032521;28;49875;-72
2022/03/08 08:00:48;;;;;;;;;66.67;50.33;;;;;2.57;51.25;101528.75;5032150;28;50946;-82
2022/03/08 08:03:14;;;;;;;;;58.33;45.00;;;;;2.32;51.37;101464.84;5031129;28;49948;-72
2022/03/08 08:05:39;;;;;;;;;70.00;51.33;;;;;2.72;51.90;101522.78;5032074;28;49708;-75
2022/03/08 08:08:06;;;;;;;;;76.00;60.00;;;;;2.80;50.78;101526.75;5032474;28;49956;-70
2022/03/08 08:10:32;;;;;;;;;66.00;52.00;;;;;2.84;51.75;101520.94;5031979;28;50685;-70
2022/03/08 08:12:57;;;;;;;;;56.00;48.75;;;;;2.87;51.52;101523.72;5032124;28;49644;-70
2022/03/08 08:15:22;;;;;;;;;65.67;50.33;;;;;2.56;51.03;101466.44;5032367;28;49917;-69
2022/03/08 08:17:48;;;;;;;;;63.00;49.00;;;;;2.96;51.13;101519.13;5032537;28;49553;-72
2022/03/08 08:20:14;;;;;;;;;64.33;50.67;;;;;2.95;51.41;101504.38;5031717;28;49682;-70
2022/03/08 08:22:39;;;;;;;;;70.67;52.00;;;;;3.13;50.46;101515.91;5031669;28;49836;-70
2022/03/08 08:25:06;;;;;;;;;71.33;49.67;;;;;3.22;50.86;101512.09;5032002;28;50224;-70
2022/03/08 08:27:32;;;;;;;;;66.33;54.33;;;;;3.22;49.74;101505.19;5031688;28;49840;-71
2022/03/08 08:29:57;;;;;;;;;62.25;49.50;;;;;3.32;50.04;101489.41;5031801;28;49850;-71
2022/03/08 08:32:23;;;;;;;;;63.25;50.25;;;;;3.53;49.43;101514.88;5031842;28;49801;-71
2022/03/08 08:34:48;;;;;;;;;53.50;41.00;;;;;3.63;49.35;101530.19;5031935;28;49856;-72
2022/03/08 08:37:13;;;;;;;;;69.00;50.75;;;;;3.50;49.36;101504.31;5031736;28;49618;-70
2022/03/08 08:39:39;;;;;;;;;40.50;30.25;;;;;3.54;48.89;101496.78;5031382;28;50395;-70
2022/03/08 08:42:05;;;;;;;;;53.00;42.75;;;;;3.64;48.79;101519.91;5031784;28;49844;-69
2022/03/08 08:44:30;;;;;;;;;62.25;47.75;;;;;3.81;47.90;101533.91;5031478;28;49725;-69
2022/03/08 08:46:55;;;;;;;;;52.75;46.00;;;;;3.84;48.13;101525.41;5031700;28;49963;-71
2022/03/08 08:49:21;;;;;;;;;58.00;49.00;;;;;3.66;48.35;101475.84;5031471;28;49800;-70
2022/03/08 08:51:46;;;;;;;;;64.00;48.67;;;;;4.06;48.97;101533.69;5031778;28;50057;-69
2022/03/08 08:54:12;;;;;;;;;59.75;49.00;;;;;4.08;47.94;101523.38;5031504;28;49792;-69
2022/03/08 08:56:38;;;;;;;;;68.25;53.00;;;;;4.13;47.67;101530.63;5031447;28;49753;-71
2022/03/08 08:59:05;;;;;;;;;52.25;43.50;;;;;4.05;48.21;101518.88;5031054;28;49838;-70
2022/03/08 09:01:31;;;;;;;;;69.33;56.00;;;;;4.18;48.03;101526.59;5031179;28;49810;-69
2022/03/08 09:03:56;;;;;;;;;67.75;48.00;;;;;4.35;47.58;101526.69;5031588;28;49813;-70
2022/03/08 09:06:22;;;;;;;;;67.33;53.00;;;;;4.42;48.01;101529.72;5031622;28;50022;-70
2022/03/08 09:08:47;;;;;;;;;71.00;50.75;;;;;4.50;48.24;101527.56;5031051;28;49862;-70
2022/03/08 09:11:13;;;;;;;;;58.50;49.00;;;;;4.52;47.42;101513.81;5031061;28;49908;-70
2022/03/08 09:13:39;;;;;;;;;72.50;51.50;;;;;4.13;47.72;101424.06;5030860;28;49998;-70
2022/03/08 09:16:05;;;;;;;;;66.50;52.75;;;;;4.56;47.40;101482.00;5031203;28;49955;-70
2022/03/08 09:18:31;;;;;;;;;65.25;48.75;;;;;4.67;47.31;101489.50;5030592;28;50607;-70
2022/03/08 09:20:56;;;;;;;;;54.75;45.50;;;;;4.90;47.01;101522.88;5030949;28;49841;-70
2022/03/08 09:23:22;;;;;;;;;62.00;49.25;;;;;4.66;46.65;101477.31;5031062;28;49801;-70
2022/03/08 09:25:47;;;;;;;;;71.50;54.50;;;;;5.01;46.58;101513.97;5030773;28;49570;-70
2022/03/08 09:28:13;;;;;;;;;64.33;50.00;;;;;4.93;46.62;101483.16;5030834;28;51105;-68
2022/03/08 09:30:38;;;;;;;;;70.33;54.00;;;;;5.21;47.48;101506.34;5030903;28;49556;-70
2022/03/08 09:33:04;;;;;;;;;63.25;50.00;;;;;5.15;46.59;101484.41;5030932;28;49881;-71
2022/03/08 09:35:31;;;;;;;;;64.00;51.75;;;;;5.40;46.35;101503.91;5030860;28;49816;-70
2022/03/08 09:37:57;;;;;;;;;62.75;52.00;;;;;5.47;45.89;101506.03;5030440;28;49702;-70
2022/03/08 09:40:23;;;;;;;;;72.50;55.00;;;;;5.49;46.59;101498.31;5030785;28;49745;-68
2022/03/08 09:42:49;;;;;;;;;63.25;50.75;;;;;5.53;45.95;101495.06;5012706;28;49783;-68
2022/03/08 09:45:17;;;;;;;;;70.25;54.50;;;;;5.67;45.72;101504.47;5030964;28;49761;-69
2022/03/08 09:47:42;;;;;;;;;53.75;41.50;;;;;5.67;45.88;101492.34;5030486;28;50503;-69
2022/03/08 09:50:10;;;;;;;;;68.75;54.75;;;;;5.82;46.00;101505.28;5030462;28;49904;-68
2022/03/08 09:52:38;;;;;;;;;75.33;58.67;;;;;5.78;45.47;101484.19;5030201;28;49980;-68
2022/03/08 09:55:05;;;;;;;;;66.00;51.75;;;;;5.85;45.54;101494.13;5030707;28;49876;-69
2022/03/08 09:57:30;;;;;;;;;65.75;48.25;;;;;5.81;45.39;101474.84;5030469;28;50361;-68
2022/03/08 09:59:56;;;;;;;;;64.50;51.00;;;;;5.99;45.06;101512.31;5030555;28;49598;-68
2022/03/08 10:02:24;;;;;;;;;67.50;53.50;;;;;6.01;45.20;101496.75;5030479;28;49762;-69
2022/03/08 10:05:06;;;;;;;;;67.00;51.75;;;;;6.04;45.63;101481.25;5030864;28;50170;-69
2022/03/08 10:07:32;;;;;;;;;59.25;43.25;;;;;6.13;44.96;101488.63;5029754;28;51771;-69
2022/03/08 10:09:58;;;;;;;;;66.00;48.00;;;;;6.08;45.31;101453.63;5030314;28;49672;-69
2022/03/08 10:12:25;;;;;;;;;66.00;54.00;;;;;6.28;45.56;101472.06;5012447;28;49820;-68
2022/03/08 10:14:51;;;;;;;;;67.25;51.75;;;;;6.37;45.02;101476.84;5030349;28;49715;-69
2022/03/08 10:17:39;;;;;;;;;63.00;49.75;;;;;6.49;44.49;101486.97;5030241;28;49710;-68
2022/03/08 10:20:10;;;;;;;;;68.00;51.25;;;;;6.58;45.49;101484.81;5030164;28;49796;-69
2022/03/08 10:22:37;;;;;;;;;61.00;50.75;;;;;6.59;45.04;101471.81;5030097;28;49797;-68
2022/03/08 10:25:16;;;;;;;;;73.00;58.50;;;;;6.48;44.68;101433.00;5028988;28;49602;-69
2022/03/08 10:27:52;;;;;;;;;66.75;51.00;;;;;6.76;44.63;101467.41;5029786;28;50261;-68
2022/03/08 10:30:17;;;;;;;;;71.25;54.00;;;;;6.66;44.15;101435.56;5024502;28;49757;-68
2022/03/08 10:32:46;;;;;;;;;54.75;43.25;;;;;6.75;44.61;101449.06;5011952;28;49701;-68
2022/03/08 10:35:11;;;;;;;;;65.75;51.75;;;;;6.71;44.20;101431.47;5030166;28;49673;-69
2022/03/08 10:37:38;;;;;;;;;50.00;41.25;;;;;6.95;44.16;101469.19;5029609;28;50519;-69
2022/03/08 10:40:07;;;;;;;;;72.75;56.25;;;;;6.91;43.89;101455.91;5029862;28;50018;-68
2022/03/08 10:42:36;;;;;;;;;71.00;56.25;;;;;6.52;43.87;101369.72;5029721;28;49845;-68
2022/03/08 10:45:07;;;;;;;;;70.50;53.75;;;;;7.17;44.17;101458.88;5029877;28;49863;-69
2022/03/08 10:47:42;;;;;;;;;62.75;49.25;;;;;7.20;43.29;101446.78;5029580;28;50289;-78
2022/03/08 10:50:11;;;;;;;;;62.75;51.75;;;;;7.33;44.10;101455.22;5029609;28;49790;-65
2022/03/08 10:52:41;;;;;;;;;68.50;54.25;;;;;7.39;43.61;101454.63;5029301;28;49890;-65
2022/03/08 10:55:44;;;;;;;;;63.75;52.50;;;;;7.22;43.43;101427.75;5029540;28;49946;-73
2022/03/08 10:58:12;;;;;;;;;64.25;52.75;;;;;6.89;43.58;101352.31;5016047;28;50276;-69
2022/03/08 11:01:06;;;;;;;;;65.00;53.00;;;;;7.51;42.89;101439.47;5029718;28;49837;-70
2022/03/08 11:03:32;;;;;;;;;71.50;53.75;;;;;7.39;43.16;101413.72;5011672;28;49962;-70
2022/03/08 11:06:05;;;;;;;;;65.50;49.25;;;;;7.64;42.78;101430.47;5029432;28;49669;-69
2022/03/08 11:08:31;;;;;;;;;67.50;54.75;;;;;7.32;42.34;101366.38;5029377;28;51495;-67
2022/03/08 11:10:57;;;;;;;;;63.75;50.50;;;;;7.78;43.05;101431.06;5029538;28;49965;-68
2022/03/08 11:13:22;;;;;;;;;65.00;52.25;;;;;7.68;43.34;101398.41;5029761;28;49599;-69